Time;durP1;ratioP1;P1;durP2;ratioP2;P2;SDS_P1;SDS_P2;PMS_P1;PMS_P2;Temp;Humidity;BMP_temperature;BMP_pressure;BME280_temperature;BME280_humidity;BME280_pressure;Samples;Min_cycle;Max_cycle;Signal;HPM_P1;HPM_P2
2023/05/21 00:00:30;;;;;;;3.60;1.38;;;;;21.70;101806.00;;;;5068892;28;20199;-75
2023/05/21 00:02:57;;;;;;;3.10;1.58;;;;;21.70;101806.00;;;;5068700;28;20203;-75
2023/05/21 00:05:25;;;;;;;1.65;1.38;;;;;21.70;101797.00;;;;5074920;28;20579;-75
2023/05/21 00:07:53;;;;;;;1.80;1.67;;;;;21.70;101802.00;;;;5089561;28;20225;-75
2023/05/21 00:10:21;;;;;;;2.13;1.58;;;;;21.70;101795.00;;;;5088547;28;20212;-75
2023/05/21 00:12:48;;;;;;;3.38;1.98;;;;;21.70;101797.00;;;;5088852;28;20190;-75
2023/05/21 00:15:17;;;;;;;3.30;1.60;;;;;21.70;101794.00;;;;5088150;28;20567;-76
2023/05/21 00:17:44;;;;;;;1.50;1.40;;;;;21.80;101793.00;;;;5087947;28;20198;-75
2023/05/21 00:20:12;;;;;;;2.72;1.73;;;;;21.80;101793.00;;;;5087734;28;20200;-75
2023/05/21 00:22:40;;;;;;;1.60;1.50;;;;;21.80;101788.00;;;;5088304;28;20683;-76
2023/05/21 00:25:08;;;;;;;1.67;1.17;;;;;21.80;101788.00;;;;5088243;28;20375;-75
2023/05/21 00:27:36;;;;;;;1.55;1.25;;;;;21.80;101785.00;;;;5088092;28;20679;-75
2023/05/21 00:30:03;;;;;;;2.78;1.85;;;;;21.80;101789.00;;;;5087724;28;20198;-75
2023/05/21 00:32:32;;;;;;;2.17;1.77;;;;;21.80;101779.00;;;;5088490;28;20275;-75
2023/05/21 00:34:59;;;;;;;2.38;1.40;;;;;21.80;101781.00;;;;5087918;28;20206;-75
2023/05/21 00:37:28;;;;;;;2.05;1.45;;;;;21.80;101775.00;;;;5087833;28;20202;-76
2023/05/21 00:39:55;;;;;;;1.38;1.27;;;;;21.80;101774.00;;;;5088159;28;20209;-76
2023/05/21 00:42:26;;;;;;;1.95;1.60;;;;;21.80;101771.00;;;;5087950;28;20201;-76
2023/05/21 00:44:53;;;;;;;2.05;1.42;;;;;21.70;101770.00;;;;5088007;28;20225;-76
2023/05/21 00:47:21;;;;;;;1.65;1.33;;;;;21.70;101771.00;;;;5087795;28;20270;-75
2023/05/21 00:49:52;;;;;;;1.73;1.40;;;;;21.70;101776.00;;;;5087982;28;20194;-76
2023/05/21 00:52:20;;;;;;;1.85;1.30;;;;;21.70;101767.00;;;;5087254;28;20201;-76
2023/05/21 00:54:49;;;;;;;2.63;1.75;;;;;21.70;101772.00;;;;5087773;28;20197;-75
2023/05/21 00:57:19;;;;;;;1.90;1.48;;;;;21.70;101763.00;;;;5087633;28;20198;-76
2023/05/21 00:59:47;;;;;;;4.10;2.10;;;;;21.70;101769.00;;;;5087012;28;20206;-76
2023/05/21 01:02:17;;;;;;;2.33;1.45;;;;;21.70;101764.00;;;;5087249;28;20280;-75
2023/05/21 01:04:44;;;;;;;1.98;1.75;;;;;21.70;101764.00;;;;5087513;28;20198;-76
2023/05/21 01:07:13;;;;;;;3.15;1.65;;;;;21.70;101761.00;;;;5087700;28;20210;-75
2023/05/21 01:09:41;;;;;;;2.90;1.85;;;;;21.70;101761.00;;;;5087150;28;20214;-75
2023/05/21 01:12:09;;;;;;;3.72;1.75;;;;;21.70;101760.00;;;;5087621;28;20206;-75
2023/05/21 01:14:37;;;;;;;3.00;2.22;;;;;21.70;101764.00;;;;5087782;28;20194;-76
2023/05/21 01:17:09;;;;;;;2.38;1.98;;;;;21.60;101758.00;;;;5088163;28;20190;-76
2023/05/21 01:19:36;;;;;;;2.40;1.63;;;;;21.60;101755.00;;;;5087881;28;20797;-75
2023/05/21 01:22:06;;;;;;;2.40;1.75;;;;;21.60;101755.00;;;;5088794;28;20194;-75
2023/05/21 01:24:34;;;;;;;2.03;1.67;;;;;21.60;101750.00;;;;5088036;28;20575;-75
2023/05/21 01:27:05;;;;;;;1.67;1.50;;;;;21.60;101746.00;;;;5088239;28;20661;-75
2023/05/21 01:29:32;;;;;;;3.90;1.85;;;;;21.60;101747.00;;;;5087878;28;20278;-76
2023/05/21 01:32:04;;;;;;;3.25;1.67;;;;;21.60;101747.00;;;;5088281;28;20891;-76
2023/05/21 01:34:45;;;;;;;2.85;2.10;;;;;21.50;101746.00;;;;5086624;28;20207;-76
2023/05/21 01:37:18;;;;;;;2.85;2.00;;;;;21.50;101741.00;;;;5087246;28;20202;-75
2023/05/21 01:39:52;;;;;;;3.15;2.00;;;;;21.50;101743.00;;;;5088300;28;20206;-75
2023/05/21 01:42:22;;;;;;;2.67;1.80;;;;;21.50;101740.00;;;;5088042;28;20198;-75
2023/05/21 01:44:51;;;;;;;2.00;1.45;;;;;21.50;101740.00;;;;5088395;28;20219;-75
2023/05/21 01:47:20;;;;;;;2.40;1.65;;;;;21.50;101743.00;;;;5087945;28;20202;-76
2023/05/21 01:49:48;;;;;;;2.08;1.52;;;;;21.50;101741.00;;;;5087530;28;20219;-76
2023/05/21 01:52:16;;;;;;;3.25;2.15;;;;;21.50;101743.00;;;;5086680;28;20198;-76
2023/05/21 01:54:43;;;;;;;3.75;2.03;;;;;21.50;101746.00;;;;5088378;28;20198;-76
2023/05/21 01:57:11;;;;;;;2.10;1.90;;;;;21.40;101739.00;;;;5086217;28;20210;-75
2023/05/21 01:59:39;;;;;;;3.67;2.03;;;;;21.50;101742.00;;;;5088210;28;20191;-75
2023/05/21 02:02:06;;;;;;;3.92;2.25;;;;;21.40;101742.00;;;;5087488;28;20202;-75
2023/05/21 02:04:33;;;;;;;5.60;1.90;;;;;21.40;101745.00;;;;5090863;28;20202;-76
2023/05/21 02:07:01;;;;;;;2.03;1.77;;;;;21.40;101741.00;;;;5091550;28;20563;-76
2023/05/21 02:09:28;;;;;;;2.50;1.80;;;;;21.40;101740.00;;;;5091105;28;20226;-75
2023/05/21 02:11:57;;;;;;;3.72;2.92;;;;;21.40;101743.00;;;;5091275;28;20747;-75
2023/05/21 02:14:25;;;;;;;2.08;1.80;;;;;21.40;101737.00;;;;5090324;28;20209;-75
2023/05/21 02:16:52;;;;;;;4.30;2.33;;;;;21.40;101737.00;;;;5091321;28;20202;-75
2023/05/21 02:19:20;;;;;;;8.57;2.17;;;;;21.30;101730.00;;;;5090887;28;20194;-75
2023/05/21 02:21:47;;;;;;;2.65;2.03;;;;;21.30;101725.00;;;;5091338;28;20190;-76
2023/05/21 02:24:15;;;;;;;3.17;2.40;;;;;21.30;101730.00;;;;5090621;28;20235;-76
2023/05/21 02:26:42;;;;;;;5.45;2.33;;;;;21.30;101726.00;;;;5090055;28;20210;-75
2023/05/21 02:29:10;;;;;;;4.70;2.58;;;;;21.30;101727.00;;;;5090368;28;20226;-75
2023/05/21 02:31:38;;;;;;;3.25;2.13;;;;;21.30;101733.00;;;;5091025;28;20237;-75
2023/05/21 02:34:06;;;;;;;2.50;1.80;;;;;21.30;101733.00;;;;5090487;28;20289;-75
2023/05/21 02:36:34;;;;;;;2.50;2.05;;;;;21.30;101732.00;;;;5090537;28;20202;-75
2023/05/21 02:39:02;;;;;;;2.03;1.83;;;;;21.30;101734.00;;;;5091203;28;20205;-76
2023/05/21 02:41:29;;;;;;;2.40;1.92;;;;;21.30;101735.00;;;;5091001;28;20204;-75
2023/05/21 02:43:57;;;;;;;2.42;2.15;;;;;21.30;101729.00;;;;5090298;28;20209;-75
2023/05/21 02:46:24;;;;;;;2.40;2.00;;;;;21.30;101733.00;;;;5089724;28;20190;-76
2023/05/21 02:48:52;;;;;;;4.72;2.42;;;;;21.30;101731.00;;;;5090356;28;20225;-76
2023/05/21 02:51:20;;;;;;;4.47;2.40;;;;;21.30;101731.00;;;;5090682;28;20209;-75
2023/05/21 02:53:47;;;;;;;2.35;2.13;;;;;21.30;101725.00;;;;5090433;28;20209;-76
2023/05/21 02:56:15;;;;;;;3.25;2.13;;;;;21.20;101730.00;;;;5089273;28;20199;-76
2023/05/21 02:58:42;;;;;;;3.53;2.13;;;;;21.20;101733.00;;;;5089860;28;20198;-77
2023/05/21 03:01:09;;;;;;;3.17;2.35;;;;;21.20;101735.00;;;;5090342;28;20210;-76
2023/05/21 03:03:36;;;;;;;2.72;2.20;;;;;21.20;101730.00;;;;5090375;28;20205;-76
2023/05/21 03:06:08;;;;;;;3.22;2.53;;;;;21.10;101726.00;;;;5090378;28;20207;-77
2023/05/21 03:08:36;;;;;;;3.30;2.40;;;;;21.10;101731.00;;;;5089237;28;20254;-76
2023/05/21 03:11:03;;;;;;;4.10;2.50;;;;;21.10;101723.00;;;;5090486;28;20210;-76
2023/05/21 03:13:31;;;;;;;4.65;2.17;;;;;21.10;101720.00;;;;5089574;28;20201;-76
2023/05/21 03:15:58;;;;;;;3.00;2.70;;;;;21.10;101719.00;;;;5089536;28;20696;-76
2023/05/21 03:18:25;;;;;;;4.93;2.80;;;;;21.10;101716.00;;;;5089573;28;20202;-76
2023/05/21 03:20:52;;;;;;;3.28;2.95;;;;;21.00;101721.00;;;;5089704;28;20202;-76
2023/05/21 03:23:21;;;;;;;3.67;2.53;;;;;21.00;101721.00;;;;5088860;28;20671;-76
2023/05/21 03:25:49;;;;;;;4.15;2.65;;;;;21.00;101715.00;;;;5088446;28;20195;-76
2023/05/21 03:28:17;;;;;;;2.83;2.20;;;;;21.00;101714.00;;;;5089613;28;20249;-76
2023/05/21 03:30:46;;;;;;;2.80;1.90;;;;;21.00;101711.00;;;;5089956;28;21317;-76
2023/05/21 03:33:14;;;;;;;2.78;2.35;;;;;21.00;101705.00;;;;5089756;28;20220;-76
2023/05/21 03:35:41;;;;;;;2.83;2.22;;;;;21.00;101708.00;;;;5089103;28;20282;-76
2023/05/21 03:38:08;;;;;;;4.28;2.70;;;;;21.00;101705.00;;;;5089698;28;20232;-77
2023/05/21 03:40:37;;;;;;;3.83;2.47;;;;;20.90;101706.00;;;;5089531;28;20209;-76
2023/05/21 03:43:04;;;;;;;2.97;2.22;;;;;20.90;101706.00;;;;5089928;28;20202;-77
2023/05/21 03:45:32;;;;;;;3.03;2.70;;;;;21.00;101696.00;;;;5089714;28;20209;-76
2023/05/21 03:48:00;;;;;;;3.95;2.58;;;;;21.00;101704.00;;;;5088818;28;20895;-76
2023/05/21 03:50:27;;;;;;;5.90;2.42;;;;;20.90;101704.00;;;;5088706;28;20198;-76
2023/05/21 03:52:55;;;;;;;3.10;2.80;;;;;20.90;101710.00;;;;5088155;28;20569;-76
2023/05/21 03:55:22;;;;;;;2.70;2.17;;;;;20.90;101701.00;;;;5088418;28;20194;-76
2023/05/21 03:57:51;;;;;;;3.35;2.20;;;;;20.90;101704.00;;;;5088697;28;20213;-77
2023/05/21 04:00:18;;;;;;;5.35;2.53;;;;;20.90;101701.00;;;;5088656;28;20217;-76
2023/05/21 04:02:46;;;;;;;2.50;2.08;;;;;20.90;101707.00;;;;5089193;28;20201;-76
2023/05/21 04:05:13;;;;;;;3.45;2.30;;;;;20.90;101710.00;;;;5087496;28;20205;-77
2023/05/21 04:07:41;;;;;;;3.80;2.10;;;;;20.90;101701.00;;;;5088511;28;20201;-76
2023/05/21 04:10:09;;;;;;;2.28;2.08;;;;;20.90;101704.00;;;;5087812;28;20428;-76
2023/05/21 04:12:36;;;;;;;3.33;2.28;;;;;20.90;101710.00;;;;5088217;28;20241;-76
2023/05/21 04:15:06;;;;;;;3.03;2.22;;;;;20.90;101702.00;;;;5088451;28;20225;-76
2023/05/21 04:17:34;;;;;;;2.50;2.17;;;;;20.90;101706.00;;;;5088038;28;20196;-76
2023/05/21 04:20:02;;;;;;;2.83;2.05;;;;;20.90;101706.00;;;;5089024;28;20205;-76
2023/05/21 04:22:30;;;;;;;3.17;2.20;;;;;20.90;101709.00;;;;5087764;28;20199;-76
2023/05/21 04:24:58;;;;;;;2.72;2.05;;;;;20.90;101707.00;;;;5088131;28;20206;-77
2023/05/21 04:27:26;;;;;;;4.22;2.20;;;;;20.90;101707.00;;;;5087725;28;20220;-76
2023/05/21 04:29:54;;;;;;;3.10;2.30;;;;;21.00;101703.00;;;;5088696;28;20225;-76
2023/05/21 04:32:23;;;;;;;2.40;2.20;;;;;20.90;101705.00;;;;5088284;28;20257;-76
2023/05/21 04:34:50;;;;;;;2.20;1.98;;;;;21.00;101702.00;;;;5088616;28;20198;-76
2023/05/21 04:37:17;;;;;;;2.13;1.92;;;;;21.00;101712.00;;;;5088649;28;20202;-76
2023/05/21 04:39:45;;;;;;;2.58;2.05;;;;;21.00;101702.00;;;;5089144;28;20198;-76
2023/05/21 04:42:12;;;;;;;2.33;1.92;;;;;21.00;101707.00;;;;5088728;28;20194;-76
2023/05/21 04:44:43;;;;;;;3.13;2.30;;;;;21.00;101709.00;;;;5088166;28;20627;-75
2023/05/21 04:47:13;;;;;;;3.03;2.30;;;;;21.00;101712.00;;;;5087876;28;20210;-76
2023/05/21 04:49:42;;;;;;;2.72;2.15;;;;;21.00;101708.00;;;;5088856;28;20643;-76
2023/05/21 04:52:09;;;;;;;3.53;2.38;;;;;21.00;101712.00;;;;5087067;28;20206;-76
2023/05/21 04:54:37;;;;;;;2.25;2.03;;;;;21.00;101709.00;;;;5088911;28;20187;-76
2023/05/21 04:57:05;;;;;;;5.18;2.17;;;;;21.00;101711.00;;;;5086403;28;20248;-76
2023/05/21 04:59:33;;;;;;;4.38;2.10;;;;;21.00;101712.00;;;;5087784;28;20206;-75
2023/05/21 05:02:00;;;;;;;3.70;2.15;;;;;21.00;101711.00;;;;5088053;28;20202;-76
2023/05/21 05:04:27;;;;;;;2.97;2.25;;;;;21.00;101711.00;;;;5088382;28;20213;-76
2023/05/21 05:06:56;;;;;;;2.65;2.38;;;;;21.00;101716.00;;;;5088723;28;20199;-77
2023/05/21 05:09:24;;;;;;;2.30;2.10;;;;;21.00;101714.00;;;;5087433;28;20225;-76
2023/05/21 05:11:51;;;;;;;2.35;1.92;;;;;21.00;101716.00;;;;5088286;28;20566;-76
2023/05/21 05:14:18;;;;;;;4.20;2.22;;;;;21.00;101716.00;;;;5087647;28;20203;-75
2023/05/21 05:16:46;;;;;;;2.50;2.10;;;;;21.00;101718.00;;;;5088185;28;20202;-76
2023/05/21 05:19:14;;;;;;;3.05;2.40;;;;;21.00;101714.00;;;;5087711;28;20198;-76
2023/05/21 05:21:41;;;;;;;4.43;2.97;;;;;21.00;101708.00;;;;5087051;28;20205;-76
2023/05/21 05:24:10;;;;;;;2.67;2.13;;;;;21.00;101717.00;;;;5088184;28;20212;-75
2023/05/21 05:26:37;;;;;;;3.30;2.05;;;;;21.10;101715.00;;;;5088189;28;20221;-76
2023/05/21 05:29:04;;;;;;;2.92;2.25;;;;;21.10;101714.00;;;;5088244;28;20233;-76
2023/05/21 05:31:31;;;;;;;3.58;2.33;;;;;21.10;101710.00;;;;5087607;28;20234;-76
2023/05/21 05:33:59;;;;;;;2.80;2.40;;;;;21.10;101707.00;;;;5087986;28;20214;-76
2023/05/21 05:36:26;;;;;;;3.20;2.28;;;;;21.10;101703.00;;;;5088755;28;20210;-76
2023/05/21 05:38:53;;;;;;;2.45;2.25;;;;;21.10;101707.00;;;;5092549;28;20201;-76
2023/05/21 05:41:22;;;;;;;3.33;2.38;;;;;21.10;101708.00;;;;5091759;28;20202;-76
2023/05/21 05:43:49;;;;;;;2.38;2.17;;;;;21.20;101714.00;;;;5091861;28;20206;-76
2023/05/21 05:46:16;;;;;;;3.80;2.50;;;;;21.20;101712.00;;;;5091704;28;20296;-76
2023/05/21 05:48:44;;;;;;;2.95;2.25;;;;;21.20;101709.00;;;;5091785;28;20194;-76
2023/05/21 05:51:11;;;;;;;4.18;2.33;;;;;21.30;101705.00;;;;5090160;28;20189;-75
2023/05/21 05:53:38;;;;;;;4.65;2.50;;;;;21.30;101710.00;;;;5091160;28;20247;-76
2023/05/21 05:56:07;;;;;;;3.13;2.25;;;;;21.30;101706.00;;;;5091567;28;20673;-77
2023/05/21 05:58:35;;;;;;;2.92;2.15;;;;;21.30;101704.00;;;;5091218;28;20224;-76
2023/05/21 06:01:02;;;;;;;4.78;2.53;;;;;21.30;101704.00;;;;5091665;28;20194;-76
2023/05/21 06:03:30;;;;;;;3.47;2.30;;;;;21.40;101709.00;;;;5090725;28;20194;-76
2023/05/21 06:05:57;;;;;;;2.83;2.25;;;;;21.40;101701.00;;;;5091349;28;20199;-76
2023/05/21 06:08:25;;;;;;;2.78;2.20;;;;;21.50;101692.00;;;;5077436;28;20213;-76
2023/05/21 06:10:52;;;;;;;3.38;2.38;;;;;21.50;101694.00;;;;5070409;28;20342;-76
2023/05/21 06:13:20;;;;;;;3.13;2.83;;;;;21.60;101702.00;;;;5070102;28;20214;-76
2023/05/21 06:15:48;;;;;;;4.05;2.50;;;;;21.60;101697.00;;;;5071155;28;20198;-76
2023/05/21 06:18:16;;;;;;;4.15;2.50;;;;;21.70;101699.00;;;;5070888;28;20203;-75
2023/05/21 06:20:43;;;;;;;3.08;2.60;;;;;21.70;101698.00;;;;5073311;28;21764;-76
2023/05/21 06:23:10;;;;;;;3.83;2.85;;;;;21.80;101694.00;;;;5091199;28;20735;-76
2023/05/21 06:25:39;;;;;;;3.35;2.70;;;;;21.80;101698.00;;;;5090622;28;20864;-76
2023/05/21 06:28:06;;;;;;;3.95;2.38;;;;;21.80;101706.00;;;;5090793;28;20625;-76
2023/05/21 06:30:33;;;;;;;4.28;3.28;;;;;21.80;101698.00;;;;5090716;28;20222;-76
2023/05/21 06:33:02;;;;;;;3.08;2.78;;;;;21.80;101704.00;;;;5091290;28;20222;-76
2023/05/21 06:35:29;;;;;;;5.47;3.15;;;;;21.90;101704.00;;;;5090500;28;20203;-76
2023/05/21 06:37:57;;;;;;;3.60;2.80;;;;;21.90;101707.00;;;;5090719;28;20198;-76
2023/05/21 06:40:24;;;;;;;3.65;2.65;;;;;21.90;101699.00;;;;5090755;28;21012;-76
2023/05/21 06:42:51;;;;;;;3.65;2.97;;;;;22.00;101691.00;;;;5090667;28;20205;-76
2023/05/21 06:45:19;;;;;;;3.28;2.75;;;;;22.00;101689.00;;;;5090560;28;20229;-76
2023/05/21 06:47:46;;;;;;;3.22;2.65;;;;;22.00;101693.00;;;;5090443;28;20232;-76
2023/05/21 06:50:14;;;;;;;4.55;2.28;;;;;22.00;101700.00;;;;5089121;28;20218;-76
2023/05/21 06:52:42;;;;;;;4.53;3.30;;;;;22.10;101684.00;;;;5090000;28;20198;-76
2023/05/21 06:55:09;;;;;;;4.32;3.25;;;;;22.20;101692.00;;;;5090674;28;20187;-76
2023/05/21 06:57:38;;;;;;;3.55;2.90;;;;;22.20;101683.00;;;;5090479;28;20698;-76
2023/05/21 07:00:08;;;;;;;4.25;3.35;;;;;22.30;101688.00;;;;5085692;28;20201;-76
2023/05/21 07:02:35;;;;;;;5.28;3.03;;;;;22.30;101685.00;;;;5082520;28;20206;-76
2023/05/21 07:05:02;;;;;;;5.80;3.40;;;;;22.30;101685.00;;;;5084533;28;20194;-77
2023/05/21 07:07:33;;;;;;;4.72;3.00;;;;;22.40;101683.00;;;;5090421;28;20190;-76
2023/05/21 07:10:00;;;;;;;3.53;2.97;;;;;22.40;101690.00;;;;5084247;28;20381;-76
2023/05/21 07:12:28;;;;;;;3.50;2.80;;;;;22.50;101681.00;;;;5078088;28;20210;-76
2023/05/21 07:14:55;;;;;;;3.78;2.97;;;;;22.60;101683.00;;;;5085604;28;20191;-76
2023/05/21 07:17:22;;;;;;;3.35;2.80;;;;;22.60;101690.00;;;;5087038;28;20222;-75
2023/05/21 07:19:49;;;;;;;5.25;3.38;;;;;22.70;101682.00;;;;5087720;28;21004;-76
2023/05/21 07:22:17;;;;;;;4.80;3.10;;;;;22.80;101682.00;;;;5087851;28;20191;-76
2023/05/21 07:24:45;;;;;;;5.20;2.85;;;;;22.80;101693.00;;;;5088821;28;20551;-76
2023/05/21 07:27:12;;;;;;;4.07;3.38;;;;;22.80;101696.00;;;;5071970;28;20199;-75
2023/05/21 07:29:40;;;;;;;4.43;3.25;;;;;22.90;101693.00;;;;5069290;28;20587;-77
2023/05/21 07:32:07;;;;;;;2.97;2.58;;;;;22.90;101697.00;;;;5073299;28;20221;-76
2023/05/21 07:34:34;;;;;;;3.50;2.83;;;;;23.00;101696.00;;;;5086895;28;20209;-77
2023/05/21 07:37:02;;;;;;;3.72;3.10;;;;;23.10;101694.00;;;;5083492;28;20195;-76
2023/05/21 07:39:29;;;;;;;4.43;2.88;;;;;23.10;101700.00;;;;5081668;28;20214;-78
2023/05/21 07:41:58;;;;;;;4.72;2.95;;;;;23.10;101695.00;;;;5077606;28;20202;-76
2023/05/21 07:44:25;;;;;;;3.75;3.30;;;;;23.20;101706.00;;;;5071895;28;20252;-77
2023/05/21 07:46:52;;;;;;;6.18;3.03;;;;;23.30;101702.00;;;;5089881;28;20195;-76
2023/05/21 07:49:19;;;;;;;3.40;3.05;;;;;23.30;101699.00;;;;5089435;28;20214;-76
2023/05/21 07:51:47;;;;;;;5.53;3.60;;;;;23.30;101690.00;;;;5089343;28;20198;-76
2023/05/21 07:54:14;;;;;;;3.97;3.03;;;;;23.40;101687.00;;;;5089843;28;20573;-77
2023/05/21 07:56:41;;;;;;;3.42;3.13;;;;;23.50;101686.00;;;;5088626;28;20572;-76
2023/05/21 07:59:10;;;;;;;4.90;3.30;;;;;23.50;101683.00;;;;5088558;28;20202;-77
2023/05/21 08:01:37;;;;;;;3.30;2.78;;;;;23.60;101679.00;;;;5088546;28;20197;-79
2023/05/21 08:04:05;;;;;;;4.63;3.22;;;;;23.60;101675.00;;;;5089654;28;20662;-77
2023/05/21 08:06:33;;;;;;;3.75;3.35;;;;;23.60;101675.00;;;;5090350;28;20255;-77
2023/05/21 08:09:01;;;;;;;4.07;3.45;;;;;23.70;101680.00;;;;5088421;28;20198;-77
2023/05/21 08:11:28;;;;;;;3.90;2.90;;;;;23.70;101677.00;;;;5089470;28;20275;-77
2023/05/21 08:13:56;;;;;;;4.35;3.00;;;;;23.80;101667.00;;;;5089078;28;20853;-78
2023/05/21 08:16:24;;;;;;;4.80;3.50;;;;;23.90;101675.00;;;;5087205;28;20197;-77
2023/05/21 08:18:52;;;;;;;3.35;2.70;;;;;23.90;101668.00;;;;5089023;28;20198;-77
2023/05/21 08:21:19;;;;;;;5.28;3.40;;;;;24.00;101677.00;;;;5086103;28;20206;-78
2023/05/21 08:23:46;;;;;;;2.92;2.63;;;;;24.00;101670.00;;;;5089055;28;20198;-77
2023/05/21 08:26:15;;;;;;;5.07;3.42;;;;;24.00;101664.00;;;;5088033;28;20201;-76
2023/05/21 08:28:43;;;;;;;4.95;3.50;;;;;24.10;101670.00;;;;5088248;28;20209;-76
2023/05/21 08:31:11;;;;;;;4.28;2.60;;;;;24.10;101664.00;;;;5088540;28;20237;-78
2023/05/21 08:33:40;;;;;;;4.85;3.78;;;;;24.20;101671.00;;;;5079211;28;20202;-76
2023/05/21 08:36:08;;;;;;;11.18;2.95;;;;;24.20;101675.00;;;;5081798;28;20269;-76
2023/05/21 08:38:36;;;;;;;4.43;2.72;;;;;24.30;101678.00;;;;5085007;28;20201;-75
2023/05/21 08:41:09;;;;;;;5.90;3.60;;;;;24.40;101669.00;;;;5088467;28;20251;-76
2023/05/21 08:43:38;;;;;;;4.18;3.38;;;;;24.50;101674.00;;;;5088122;28;20206;-77
2023/05/21 08:46:06;;;;;;;3.50;2.90;;;;;24.50;101677.00;;;;5088079;28;20268;-76
2023/05/21 08:48:34;;;;;;;4.18;3.60;;;;;24.60;101675.00;;;;5088479;28;20548;-76
2023/05/21 08:51:03;;;;;;;5.63;3.67;;;;;24.60;101671.00;;;;5088878;28;20218;-76
2023/05/21 08:53:32;;;;;;;5.80;3.25;;;;;24.70;101683.00;;;;5088292;28;20198;-76
2023/05/21 08:56:00;;;;;;;6.05;3.60;;;;;24.80;101676.00;;;;5088192;28;20194;-77
2023/05/21 08:58:28;;;;;;;3.00;2.60;;;;;24.80;101673.00;;;;5087787;28;20288;-76
2023/05/21 09:00:55;;;;;;;4.03;3.30;;;;;24.90;101673.00;;;;5086647;28;20213;-76
2023/05/21 09:03:23;;;;;;;5.80;3.35;;;;;25.10;101679.00;;;;5088252;28;20210;-77
2023/05/21 09:05:51;;;;;;;3.83;3.47;;;;;25.20;101676.00;;;;5088750;28;20205;-77
2023/05/21 09:08:24;;;;;;;5.32;3.72;;;;;25.30;101670.00;;;;5087836;28;20202;-77
2023/05/21 09:10:52;;;;;;;4.75;3.75;;;;;25.40;101672.00;;;;5087944;28;20703;-78
2023/05/21 09:13:20;;;;;;;2.97;2.67;;;;;25.50;101666.00;;;;5091413;28;20197;-76
2023/05/21 09:15:48;;;;;;;4.45;3.72;;;;;25.60;101672.00;;;;5092227;28;20698;-76
2023/05/21 09:18:16;;;;;;;4.65;3.47;;;;;25.60;101671.00;;;;5091074;28;20202;-76
2023/05/21 09:20:44;;;;;;;3.90;3.47;;;;;25.70;101655.00;;;;5089776;28;20210;-77
2023/05/21 09:23:15;;;;;;;4.63;3.92;;;;;25.80;101651.00;;;;5076232;28;20199;-77
2023/05/21 09:25:46;;;;;;;4.75;3.70;;;;;26.00;101658.00;;;;5074110;28;20194;-76
2023/05/21 09:28:14;;;;;;;6.38;3.97;;;;;26.10;101659.00;;;;5091268;28;20194;-76
2023/05/21 09:30:45;;;;;;;3.92;3.40;;;;;26.20;101651.00;;;;5091169;28;20214;-78
2023/05/21 09:33:23;;;;;;;4.15;3.75;;;;;26.30;101649.00;;;;5091958;28;20256;-76
2023/05/21 09:35:51;;;;;;;6.82;3.78;;;;;26.30;101649.00;;;;5072006;28;20191;-76
2023/05/21 09:38:21;;;;;;;5.00;4.00;;;;;26.30;101654.00;;;;5071740;28;20198;-78
2023/05/21 09:40:50;;;;;;;5.78;3.42;;;;;26.30;101644.00;;;;5071540;28;20202;-77
2023/05/21 09:43:17;;;;;;;3.67;3.22;;;;;26.40;101648.00;;;;5071695;28;20583;-76
2023/05/21 09:45:52;;;;;;;4.30;3.63;;;;;26.40;101643.00;;;;5071608;28;20218;-76
2023/05/21 09:48:34;;;;;;;5.78;3.80;;;;;26.40;101641.00;;;;5074078;28;20201;-76
2023/05/21 09:51:12;;;;;;;3.92;3.25;;;;;26.40;101641.00;;;;5090564;28;20226;-78
2023/05/21 09:53:49;;;;;;;3.47;3.08;;;;;26.50;101646.00;;;;5090983;28;20217;-77
2023/05/21 09:56:24;;;;;;;6.32;3.28;;;;;26.60;101634.00;;;;5091007;28;20194;-76
2023/05/21 09:58:55;;;;;;;3.72;2.85;;;;;26.70;101630.00;;;;5090760;28;20194;-76
2023/05/21 10:01:24;;;;;;;4.32;3.60;;;;;26.80;101633.00;;;;5090932;28;20288;-78
2023/05/21 10:03:56;;;;;;;3.85;3.03;;;;;26.90;101623.00;;;;5091092;28;20204;-76
2023/05/21 10:06:26;;;;;;;3.80;2.88;;;;;27.00;101636.00;;;;5090447;28;20638;-77
2023/05/21 10:08:55;;;;;;;4.10;3.53;;;;;27.10;101626.00;;;;5090897;28;20673;-77
2023/05/21 10:11:27;;;;;;;7.88;3.58;;;;;27.10;101636.00;;;;5090326;28;20265;-76
2023/05/21 10:13:58;;;;;;;4.70;3.50;;;;;27.20;101631.00;;;;5090769;28;20679;-77
2023/05/21 10:16:25;;;;;;;4.38;3.17;;;;;27.20;101629.00;;;;5090226;28;20672;-77
2023/05/21 10:18:54;;;;;;;4.78;3.58;;;;;27.30;101631.00;;;;5090916;28;20205;-77
2023/05/21 10:21:22;;;;;;;3.95;3.55;;;;;27.30;101627.00;;;;5087937;28;20202;-76
2023/05/21 10:23:51;;;;;;;4.93;3.85;;;;;27.40;101625.00;;;;5088633;28;20206;-76
2023/05/21 10:26:20;;;;;;;3.78;3.42;;;;;27.50;101617.00;;;;5089164;28;20655;-77
2023/05/21 10:28:50;;;;;;;3.50;3.20;;;;;27.60;101623.00;;;;5091072;28;20193;-77
2023/05/21 10:31:18;;;;;;;4.68;4.13;;;;;27.60;101617.00;;;;5090582;28;20226;-78
2023/05/21 10:33:45;;;;;;;3.65;3.22;;;;;27.60;101627.00;;;;5089350;28;20202;-76
2023/05/21 10:36:15;;;;;;;4.00;3.08;;;;;27.70;101615.00;;;;5089258;28;20621;-77
2023/05/21 10:38:44;;;;;;;4.15;3.60;;;;;27.70;101618.00;;;;5090577;28;20190;-77
2023/05/21 10:41:13;;;;;;;3.97;3.42;;;;;27.80;101613.00;;;;5090532;28;20206;-76
2023/05/21 10:44:02;;;;;;;4.65;3.55;;;;;27.80;101619.00;;;;5090167;28;20665;-77
2023/05/21 10:46:52;;;;;;;10.10;3.72;;;;;27.80;101613.00;;;;5090008;28;20198;-77
2023/05/21 10:49:35;;;;;;;3.80;3.40;;;;;27.90;101616.00;;;;5090241;28;20186;-76
2023/05/21 10:52:14;;;;;;;4.47;3.58;;;;;27.90;101612.00;;;;5090340;28;20226;-77
2023/05/21 10:55:11;;;;;;;4.25;3.85;;;;;27.80;101612.00;;;;5090513;28;20204;-76
2023/05/21 10:57:56;;;;;;;5.80;3.70;;;;;27.90;101598.00;;;;5089517;28;20205;-77
2023/05/21 11:00:26;;;;;;;5.35;3.22;;;;;28.00;101602.00;;;;5073597;28;20214;-77
2023/05/21 11:02:54;;;;;;;5.43;3.78;;;;;28.10;101608.00;;;;5073713;28;20190;-76
2023/05/21 11:05:40;;;;;;;4.38;3.70;;;;;28.00;101608.00;;;;5089739;28;20293;-77
2023/05/21 11:08:21;;;;;;;6.07;3.83;;;;;28.00;101596.00;;;;5090176;28;20205;-77
2023/05/21 11:10:53;;;;;;;3.88;3.25;;;;;28.10;101601.00;;;;5090598;28;20237;-77
2023/05/21 11:13:21;;;;;;;4.22;3.50;;;;;28.10;101609.00;;;;5090067;28;20203;-77
2023/05/21 11:16:13;;;;;;;4.28;2.92;;;;;28.00;101603.00;;;;5089128;28;20202;-77
2023/05/21 11:19:00;;;;;;;4.05;3.60;;;;;28.10;101599.00;;;;5090063;28;20691;-78
2023/05/21 11:21:30;;;;;;;4.10;3.72;;;;;28.20;101592.00;;;;5087374;28;20199;-76
2023/05/21 11:24:02;;;;;;;4.63;4.03;;;;;28.20;101593.00;;;;5090213;28;20279;-78
2023/05/21 11:26:51;;;;;;;3.40;3.10;;;;;28.20;101581.00;;;;5082067;28;20195;-77
2023/05/21 11:29:19;;;;;;;4.22;3.83;;;;;28.20;101581.00;;;;5069268;28;20198;-77
2023/05/21 11:32:00;;;;;;;5.95;3.75;;;;;28.20;101582.00;;;;5083985;28;20680;-78
2023/05/21 11:34:36;;;;;;;4.28;3.38;;;;;28.20;101570.00;;;;5088012;28;20202;-77
2023/05/21 11:37:28;;;;;;;5.75;3.53;;;;;28.10;101570.00;;;;5089070;28;21363;-77
2023/05/21 11:39:57;;;;;;;4.70;3.67;;;;;28.20;101565.00;;;;5089696;28;20200;-77
2023/05/21 11:42:29;;;;;;;4.78;3.63;;;;;28.20;101561.00;;;;5088390;28;20194;-77
2023/05/21 11:44:58;;;;;;;4.65;4.05;;;;;28.30;101568.00;;;;5089587;28;20257;-77
2023/05/21 11:47:28;;;;;;;5.35;4.03;;;;;28.30;101573.00;;;;5088464;28;20255;-76
2023/05/21 11:49:56;;;;;;;3.97;3.58;;;;;28.30;101560.00;;;;5088078;28;20201;-78
2023/05/21 11:52:24;;;;;;;6.47;4.35;;;;;28.30;101555.00;;;;5088881;28;20233;-77
2023/05/21 11:54:54;;;;;;;4.95;3.60;;;;;28.30;101554.00;;;;5089186;28;20255;-77
2023/05/21 11:57:25;;;;;;;5.13;4.45;;;;;28.40;101553.00;;;;5088267;28;20191;-77
2023/05/21 11:59:52;;;;;;;5.22;3.70;;;;;28.50;101549.00;;;;5088707;28;20244;-77
2023/05/21 12:02:21;;;;;;;4.80;4.30;;;;;28.50;101553.00;;;;5086805;28;20209;-78
2023/05/21 12:04:51;;;;;;;4.25;3.85;;;;;28.60;101540.00;;;;5075173;28;20290;-78
2023/05/21 12:07:20;;;;;;;4.88;4.40;;;;;28.60;101539.00;;;;5087609;28;20206;-77
2023/05/21 12:09:49;;;;;;;4.65;4.13;;;;;28.70;101545.00;;;;5088922;28;20190;-77
2023/05/21 12:12:18;;;;;;;5.05;4.20;;;;;28.70;101532.00;;;;5087911;28;20226;-78
2023/05/21 12:14:47;;;;;;;5.10;4.35;;;;;28.70;101543.00;;;;5088428;28;20198;-78
2023/05/21 12:17:17;;;;;;;5.13;4.20;;;;;28.80;101540.00;;;;5088938;28;20579;-78